Terminal Aerodrome Forecast
Issued by NWS

Home | Current Version | Previous Version | Text Only | Print | Product List | Glossary On
Versions: 1 2 3 4 5 6 7 8 9 10 11 12 13 14 15 16 17 18 19 20 21 22
000
FTUS43 KAPX 020500
TAFTVC
TAF
KTVC 020540Z 0206/0306 00000KT P6SM BKN150
     FM020900 15003KT P6SM -SHRA SCT015 OVC040
     FM021700 15008KT 6SM BR OVC018
     FM030200 14005KT 1SM RA BR OVC009=

USA.gov is the U.S. government's official web portal to all federal, state and local government web resources and services.